Airfield :
LOGIN :

Register | Disclaimer

   EN    FR    IT 

 










Legend :    VFR   Marginal VFR   IFR   Intensive IFR   Very Intensive IFR
Visi :
Ceiling :
>= 8 km
>= 3000ft
5 to 8 km
1000 to 3000 ft
1500m to 5 km
500 to 1000 ft
800 to 1500m
200 to 500 ft
< 800m
< 200 ft
Symbols :   Thunderstorms  Fog  Heavy snow  Heavy precipitations  Wind > 20 kt
SIGMETs :     Misc.  Thunderstorms  Icing  Turbulence  Mountain Waves  Volcanic Ashes






- Airport Elevation : 32 ft
- IATA code : LKZ


EGUL - RAF Lakenheath

CURRENT METAR :
  • 091056Z AUTO 04006KT 9999 CLR 26/16 A3007 RMK AO2 SLP186 T02570162 $

EXPIRED METARs :
  • 090956Z AUTO 02008KT 9999 CLR 24/16 A3008 RMK AO2 SLP189 T02350155 $
  • 090856Z AUTO 02009KT 9999 CLR 21/15 A3010 RMK AO2 SLP196 T02070150 58008 $

TAF AMD TAF EGUL
Valid from the 08 at 10:00 until the 09 at 15:00 UTC


081035Z 0810/0915 01009KT 9999 SCT120 QNH3006INS
BECMG 0810/0811 02012G18KT 9999 SCT120 QNH3012INS
BECMG 0821/0822 02006KT 8000 BR SCT080 SCT120 QNH3008INS
TEMPO 0902/0906 3200 BR FEW005 BKN080
BECMG 0906/0907 03012G20KT 9999 NSW BKN080 QNH3005INS TX27/0814Z TN16/0906Z LAST NO AMDS AFT 0810 NEXT 1006



MET'MAP, your aeronautical weather chart ! - Copyright ORBIFLY December 2007 - Disclaimer

ORBIFLY MET'MAP TEAM :

Programming & Development : Alexandra Zaïnal
Concept & original design : Baudouin d'Aumeries
Assistance for programming : Marc-Olivier Méhu
Technical & hardware support : Manuel Goepfert

Contact : metmap@orbifly.com




SOURCES & CREDITS :

   NOAA